createdAt,value
2018-11-06T00:00:46.657Z,45.27
2018-11-06T00:03:19.906Z,44.57
2018-11-06T00:05:47.691Z,45.40
2018-11-06T00:08:15.350Z,39.73
2018-11-06T00:10:43.212Z,42.00
2018-11-06T00:13:10.786Z,42.33
2018-11-06T00:15:38.478Z,41.80
2018-11-06T00:18:06.293Z,39.53
2018-11-06T00:20:33.921Z,39.13
2018-11-06T00:23:01.670Z,38.53
2018-11-06T00:25:29.284Z,38.40
2018-11-06T00:27:56.917Z,38.53
2018-11-06T00:30:24.583Z,39.33
2018-11-06T00:32:52.188Z,39.27
2018-11-06T00:35:19.710Z,40.60
2018-11-06T00:37:47.367Z,40.80
2018-11-06T00:40:15.015Z,38.80
2018-11-06T00:42:42.666Z,41.10
2018-11-06T00:45:14.611Z,40.27
2018-11-06T00:47:43.450Z,39.77
2018-11-06T00:50:11.832Z,41.60
2018-11-06T00:52:40.391Z,41.27
2018-11-06T00:55:09.347Z,42.03
2018-11-06T00:57:38.267Z,39.97
2018-11-06T01:00:09.010Z,43.00
2018-11-06T01:02:36.712Z,39.47
2018-11-06T01:05:05.144Z,40.77
2018-11-06T01:07:32.791Z,40.40
2018-11-06T01:10:00.522Z,37.63
2018-11-06T01:12:29.262Z,36.50
2018-11-06T01:14:56.866Z,36.67
2018-11-06T01:17:24.495Z,37.17
2018-11-06T01:19:52.090Z,35.67
2018-11-06T01:22:19.855Z,35.17
2018-11-06T01:24:47.523Z,35.87
2018-11-06T01:27:15.105Z,34.30
2018-11-06T01:29:42.666Z,32.63
2018-11-06T01:32:10.230Z,34.80
2018-11-06T01:34:37.928Z,32.70
2018-11-06T01:37:05.602Z,33.70
2018-11-06T01:39:33.395Z,34.23
2018-11-06T01:42:01.135Z,32.53
2018-11-06T01:44:28.904Z,32.63
2018-11-06T01:46:56.632Z,34.13
2018-11-06T01:49:24.211Z,33.37
2018-11-06T01:51:51.998Z,33.90
2018-11-06T01:54:19.652Z,33.63
2018-11-06T01:56:48.355Z,30.60
2018-11-06T01:59:16.119Z,30.60
2018-11-06T02:01:44.062Z,31.60
2018-11-06T02:04:12.001Z,30.80
2018-11-06T02:06:40.194Z,29.00
2018-11-06T02:09:08.754Z,29.47
2018-11-06T02:11:36.411Z,31.23
2018-11-06T02:14:04.675Z,31.00
2018-11-06T02:16:32.368Z,31.00
2018-11-06T02:19:00.036Z,29.60
2018-11-06T02:21:27.649Z,34.53
2018-11-06T02:23:55.224Z,29.47
2018-11-06T02:26:22.798Z,29.47
2018-11-06T02:28:50.390Z,31.07
2018-11-06T02:31:17.998Z,28.80
2018-11-06T02:33:45.668Z,29.63
2018-11-06T02:36:13.325Z,31.50
2018-11-06T02:38:41.004Z,32.20
2018-11-06T02:41:08.577Z,31.67
2018-11-06T02:43:36.270Z,31.57
2018-11-06T02:46:03.897Z,30.83
2018-11-06T02:48:31.544Z,30.40
2018-11-06T02:50:59.208Z,31.87
2018-11-06T02:53:26.913Z,27.60
2018-11-06T02:55:54.665Z,30.77
2018-11-06T02:58:22.281Z,32.17
2018-11-06T03:00:49.923Z,31.17
2018-11-06T03:03:17.605Z,31.57
2018-11-06T03:05:45.136Z,32.67
2018-11-06T03:08:12.941Z,32.00
2018-11-06T03:10:40.464Z,31.07
2018-11-06T03:13:08.039Z,31.13
2018-11-06T03:15:35.629Z,28.67
2018-11-06T03:18:03.271Z,30.20
2018-11-06T03:20:30.838Z,28.47
2018-11-06T03:22:58.505Z,28.97
2018-11-06T03:25:26.079Z,28.50
2018-11-06T03:27:53.839Z,28.33
2018-11-06T03:30:22.540Z,29.37
2018-11-06T03:32:50.051Z,27.53
2018-11-06T03:35:17.734Z,29.43
2018-11-06T03:37:45.324Z,26.57
2018-11-06T03:40:14.725Z,29.30
2018-11-06T03:42:45.206Z,27.33
2018-11-06T03:45:14.456Z,28.43
2018-11-06T03:47:42.187Z,28.37
2018-11-06T03:50:11.112Z,26.30
2018-11-06T03:52:38.810Z,27.03
2018-11-06T03:55:06.599Z,27.37
2018-11-06T03:57:34.185Z,28.23
2018-11-06T04:00:01.786Z,26.10
2018-11-06T04:02:29.434Z,25.40
2018-11-06T04:04:58.283Z,27.10
2018-11-06T04:07:25.815Z,28.73
2018-11-06T04:09:53.575Z,27.00
2018-11-06T04:12:21.173Z,26.80
2018-11-06T04:14:48.743Z,25.87
2018-11-06T04:17:16.230Z,24.13
2018-11-06T04:19:43.715Z,24.50
2018-11-06T04:22:11.289Z,23.70
2018-11-06T04:24:38.786Z,24.20
2018-11-06T04:27:06.273Z,26.13
2018-11-06T04:29:33.749Z,27.17
2018-11-06T04:32:01.267Z,24.80
2018-11-06T04:34:28.820Z,26.60
2018-11-06T04:36:56.331Z,26.87
2018-11-06T04:39:23.890Z,25.47
2018-11-06T04:41:51.465Z,22.90
2018-11-06T04:44:19.030Z,24.70
2018-11-06T04:46:46.571Z,24.17
2018-11-06T04:49:14.169Z,23.97
2018-11-06T04:51:41.699Z,23.90
2018-11-06T04:54:09.280Z,24.10
2018-11-06T04:56:36.859Z,23.67
2018-11-06T04:59:04.581Z,23.67
2018-11-06T05:01:32.112Z,22.43
2018-11-06T05:03:59.636Z,23.83
2018-11-06T05:06:27.210Z,22.87
2018-11-06T05:08:54.758Z,21.63
2018-11-06T05:11:22.285Z,23.27
2018-11-06T05:13:49.895Z,21.33
2018-11-06T05:16:17.484Z,21.33
2018-11-06T05:18:45.009Z,24.20
2018-11-06T05:21:12.518Z,23.10
2018-11-06T05:23:40.003Z,22.27
2018-11-06T05:26:07.594Z,23.00
2018-11-06T05:28:35.088Z,24.97
2018-11-06T05:31:02.756Z,24.60
2018-11-06T05:33:30.331Z,25.13
2018-11-06T05:35:57.938Z,23.00
2018-11-06T05:38:25.460Z,23.70
2018-11-06T05:40:56.399Z,22.77
2018-11-06T05:43:23.987Z,23.40
2018-11-06T05:45:52.369Z,22.83
2018-11-06T05:48:20.025Z,24.20
2018-11-06T05:50:47.817Z,23.63
2018-11-06T05:53:16.038Z,23.87
2018-11-06T05:55:43.558Z,22.53
2018-11-06T05:58:11.228Z,22.70
2018-11-06T06:00:39.242Z,20.80
2018-11-06T06:03:06.859Z,22.43
2018-11-06T06:05:35.480Z,24.97
2018-11-06T06:08:03.576Z,22.03
2018-11-06T06:10:31.117Z,21.63
2018-11-06T06:12:58.733Z,24.90
2018-11-06T06:15:26.269Z,21.17
2018-11-06T06:17:53.816Z,22.53
2018-11-06T06:20:21.308Z,21.50
2018-11-06T06:22:48.888Z,22.17
2018-11-06T06:25:16.512Z,22.10
2018-11-06T06:27:44.163Z,23.27
2018-11-06T06:30:13.402Z,23.27
2018-11-06T06:32:41.014Z,25.33
2018-11-06T06:35:09.098Z,24.00
2018-11-06T06:37:36.763Z,23.90
2018-11-06T06:40:05.303Z,24.20
2018-11-06T06:42:32.773Z,24.03
2018-11-06T06:45:00.508Z,25.00
2018-11-06T06:47:28.147Z,25.10
2018-11-06T06:49:55.824Z,24.70
2018-11-06T06:52:23.878Z,23.07
2018-11-06T06:54:51.747Z,25.17
2018-11-06T06:57:19.306Z,25.10
2018-11-06T06:59:46.805Z,24.87
2018-11-06T07:02:14.499Z,27.10
2018-11-06T07:04:42.043Z,28.00
2018-11-06T07:07:09.837Z,29.23
2018-11-06T07:09:37.387Z,27.23
2018-11-06T07:12:05.079Z,28.70
2018-11-06T07:14:32.619Z,26.50
2018-11-06T07:17:00.197Z,27.80
2018-11-06T07:19:27.809Z,28.40
2018-11-06T07:21:55.382Z,26.27
2018-11-06T07:24:22.898Z,28.37
2018-11-06T07:26:50.394Z,28.13
2018-11-06T07:29:17.922Z,28.30
2018-11-06T07:31:45.556Z,32.33
2018-11-06T07:34:13.090Z,31.37
2018-11-06T07:36:40.898Z,30.47
2018-11-06T07:39:10.112Z,30.47
2018-11-06T07:41:38.113Z,32.17
2018-11-06T07:44:05.787Z,32.07
2018-11-06T07:46:33.299Z,32.13
2018-11-06T07:49:00.936Z,33.77
2018-11-06T07:51:28.499Z,33.83
2018-11-06T07:53:56.025Z,37.10
2018-11-06T07:56:23.615Z,35.67
2018-11-06T07:58:51.238Z,39.60
2018-11-06T08:01:18.841Z,38.93
2018-11-06T08:03:46.445Z,38.50
2018-11-06T08:06:14.174Z,39.60
2018-11-06T08:08:42.758Z,38.17
2018-11-06T08:11:10.296Z,40.17
2018-11-06T08:13:38.114Z,39.80
2018-11-06T08:16:05.694Z,38.90
2018-11-06T08:18:33.202Z,40.87
2018-11-06T08:21:00.792Z,40.43
2018-11-06T08:23:28.304Z,37.87
2018-11-06T08:25:55.950Z,39.13
2018-11-06T08:28:23.476Z,35.93
2018-11-06T08:30:51.188Z,37.47
2018-11-06T08:33:18.591Z,38.20
2018-11-06T08:35:46.084Z,38.13
2018-11-06T08:38:13.649Z,37.53
2018-11-06T08:40:41.146Z,36.30
2018-11-06T08:43:08.768Z,38.20
2018-11-06T08:45:36.307Z,39.17
2018-11-06T08:48:04.545Z,39.33
2018-11-06T08:50:32.066Z,39.40
2018-11-06T08:52:59.687Z,38.43
2018-11-06T08:55:27.169Z,37.67
2018-11-06T08:57:54.697Z,39.53
2018-11-06T09:00:22.319Z,39.90
2018-11-06T09:02:49.927Z,38.20
2018-11-06T09:05:18.081Z,42.37
2018-11-06T09:07:45.671Z,40.73
2018-11-06T09:10:13.892Z,41.27
2018-11-06T09:12:41.532Z,45.00
2018-11-06T09:15:11.830Z,46.80
2018-11-06T09:17:39.559Z,46.00
2018-11-06T09:20:08.177Z,45.67
2018-11-06T09:22:35.746Z,48.67
2018-11-06T09:25:03.628Z,45.07
2018-11-06T09:27:31.260Z,47.47
2018-11-06T09:29:58.804Z,45.40
2018-11-06T09:32:26.348Z,44.20
2018-11-06T09:34:54.041Z,42.73
2018-11-06T09:37:21.583Z,43.30
2018-11-06T09:39:49.128Z,42.07
2018-11-06T09:42:16.701Z,41.17
2018-11-06T09:44:44.227Z,38.33
2018-11-06T09:47:11.982Z,39.60
2018-11-06T09:49:39.477Z,38.90
2018-11-06T09:52:07.180Z,38.73
2018-11-06T09:54:34.761Z,38.97
2018-11-06T09:57:02.348Z,36.47
2018-11-06T09:59:29.984Z,37.43
2018-11-06T10:01:57.592Z,36.33
2018-11-06T10:04:25.268Z,35.53
2018-11-06T10:06:53.049Z,35.77
2018-11-06T10:09:20.398Z,37.67
2018-11-06T10:11:47.865Z,34.97
2018-11-06T10:14:15.403Z,34.87
2018-11-06T10:16:43.908Z,35.37
2018-11-06T10:19:11.458Z,33.73
2018-11-06T10:21:39.076Z,35.03
2018-11-06T10:24:06.705Z,34.80
2018-11-06T10:26:34.225Z,33.30
2018-11-06T10:29:01.833Z,35.33
2018-11-06T10:31:29.316Z,32.87
2018-11-06T10:33:56.905Z,31.20
2018-11-06T10:36:24.399Z,32.43
2018-11-06T10:38:52.786Z,32.80
2018-11-06T10:41:20.503Z,31.57
2018-11-06T10:43:48.102Z,33.37
2018-11-06T10:46:15.715Z,31.03
2018-11-06T10:48:43.294Z,31.80
2018-11-06T10:51:10.802Z,31.80
2018-11-06T10:53:40.207Z,31.80
2018-11-06T10:56:07.728Z,33.07
2018-11-06T10:58:35.258Z,33.27
2018-11-06T11:01:08.730Z,33.83
2018-11-06T11:03:39.862Z,31.60
2018-11-06T11:06:07.591Z,31.67
2018-11-06T11:08:35.158Z,31.60
2018-11-06T11:11:02.658Z,29.33
2018-11-06T11:13:30.362Z,30.77
2018-11-06T11:15:57.799Z,30.27
2018-11-06T11:18:25.353Z,32.43
2018-11-06T11:20:52.981Z,31.97
2018-11-06T11:23:20.534Z,31.13
2018-11-06T11:25:48.153Z,29.60
2018-11-06T11:28:15.693Z,29.10
2018-11-06T11:30:43.190Z,31.03
2018-11-06T11:33:10.732Z,29.97
2018-11-06T11:35:38.217Z,30.03
2018-11-06T11:38:05.819Z,31.00
2018-11-06T11:40:33.445Z,30.03
2018-11-06T11:43:01.079Z,29.67
2018-11-06T11:45:28.763Z,28.90
2018-11-06T11:47:56.349Z,30.80
2018-11-06T11:50:23.895Z,31.30
2018-11-06T11:52:51.445Z,27.87
2018-11-06T11:55:19.997Z,29.20
2018-11-06T11:57:47.562Z,28.67
2018-11-06T12:00:17.459Z,29.60
2018-11-06T12:02:45.180Z,28.23
2018-11-06T12:05:12.694Z,28.63
2018-11-06T12:07:40.204Z,28.17
2018-11-06T12:10:09.212Z,26.70
2018-11-06T12:12:36.797Z,27.27
2018-11-06T12:15:09.395Z,25.90
2018-11-06T12:17:36.943Z,25.73
2018-11-06T12:20:04.870Z,26.53
2018-11-06T12:22:32.404Z,26.43
2018-11-06T12:25:00.234Z,27.30
2018-11-06T12:27:27.594Z,25.37
2018-11-06T12:29:55.157Z,25.50
2018-11-06T12:32:22.707Z,25.30
2018-11-06T12:34:50.302Z,24.27
2018-11-06T12:37:17.803Z,24.80
2018-11-06T12:39:45.426Z,25.20
2018-11-06T12:42:12.999Z,24.90
2018-11-06T12:44:41.267Z,24.60
2018-11-06T12:47:08.838Z,26.60
2018-11-06T12:49:37.435Z,25.47
2018-11-06T12:52:04.940Z,23.97
2018-11-06T12:54:32.501Z,25.30
2018-11-06T12:57:01.079Z,24.30
2018-11-06T12:59:28.672Z,22.63
2018-11-06T13:01:56.225Z,22.70
2018-11-06T13:04:23.839Z,23.13
2018-11-06T13:06:51.423Z,23.30
2018-11-06T13:09:20.026Z,24.17
2018-11-06T13:11:47.579Z,24.33
2018-11-06T13:14:15.061Z,24.40
2018-11-06T13:16:42.559Z,22.60
2018-11-06T13:19:11.308Z,23.93
2018-11-06T13:21:38.804Z,22.50
2018-11-06T13:24:06.402Z,22.90
2018-11-06T13:26:34.182Z,22.47
2018-11-06T13:29:01.518Z,24.03
2018-11-06T13:31:29.135Z,23.43
2018-11-06T13:33:57.319Z,23.17
2018-11-06T13:36:24.918Z,23.97
2018-11-06T13:38:52.626Z,23.93
2018-11-06T13:41:20.240Z,23.60
2018-11-06T13:43:47.939Z,23.20
2018-11-06T13:46:15.424Z,23.57
2018-11-06T13:48:42.905Z,24.40
2018-11-06T13:51:10.416Z,23.50
2018-11-06T13:53:37.928Z,23.67
2018-11-06T13:56:05.451Z,24.60
2018-11-06T13:58:33.187Z,22.77
2018-11-06T14:01:00.815Z,20.87
2018-11-06T14:03:28.329Z,22.87
2018-11-06T14:05:55.822Z,23.97
2018-11-06T14:08:23.351Z,23.80
2018-11-06T14:10:51.996Z,23.47
2018-11-06T14:13:19.600Z,22.37
2018-11-06T14:15:47.102Z,23.50
2018-11-06T14:18:14.680Z,23.10
2018-11-06T14:20:42.247Z,22.80
2018-11-06T14:23:09.783Z,23.13
2018-11-06T14:25:37.468Z,22.90
2018-11-06T14:28:05.170Z,24.57
2018-11-06T14:30:32.892Z,22.97
2018-11-06T14:33:00.380Z,24.13
2018-11-06T14:35:27.934Z,25.00
2018-11-06T14:37:55.473Z,23.97
2018-11-06T14:40:23.686Z,25.37
2018-11-06T14:42:51.416Z,22.20
2018-11-06T14:45:19.168Z,24.27
2018-11-06T14:47:46.915Z,24.70
2018-11-06T14:50:14.546Z,23.27
2018-11-06T14:52:42.052Z,22.93
2018-11-06T14:55:11.294Z,25.13
2018-11-06T14:57:39.294Z,25.90
2018-11-06T15:00:08.697Z,27.43
2018-11-06T15:02:36.212Z,26.10
2018-11-06T15:05:03.987Z,25.20
2018-11-06T15:07:31.588Z,26.03
2018-11-06T15:09:59.117Z,25.97
2018-11-06T15:12:26.624Z,27.03
2018-11-06T15:14:54.324Z,26.53
2018-11-06T15:17:21.996Z,27.00
2018-11-06T15:19:49.663Z,27.17
2018-11-06T15:22:17.218Z,27.53
2018-11-06T15:24:45.143Z,29.33
2018-11-06T15:27:12.935Z,28.23
2018-11-06T15:29:40.493Z,28.00
2018-11-06T15:32:08.095Z,28.40
2018-11-06T15:34:35.723Z,29.97
2018-11-06T15:38:06.652Z,30.07
2018-11-06T15:40:34.244Z,29.47
2018-11-06T15:43:01.774Z,29.80
2018-11-06T15:45:29.276Z,28.53
2018-11-06T15:47:56.935Z,28.67
2018-11-06T15:50:24.515Z,29.47
2018-11-06T15:52:52.147Z,27.97
2018-11-06T15:55:19.707Z,31.13
2018-11-06T15:57:47.421Z,36.70
2018-11-06T16:00:17.214Z,38.57
2018-11-06T16:02:45.147Z,35.00
2018-11-06T16:05:12.807Z,29.27
2018-11-06T16:07:40.560Z,29.83
2018-11-06T16:10:11.653Z,32.60
2018-11-06T16:12:39.187Z,32.73
2018-11-06T16:15:07.363Z,33.00
2018-11-06T16:17:35.492Z,31.00
2018-11-06T16:20:03.140Z,29.80
2018-11-06T16:22:31.212Z,27.97
2018-11-06T16:24:58.832Z,30.77
2018-11-06T16:27:26.552Z,31.20
2018-11-06T16:29:54.271Z,30.77
2018-11-06T16:32:21.971Z,29.13
2018-11-06T16:34:49.643Z,30.50
2018-11-06T16:37:17.192Z,31.77
2018-11-06T16:39:44.818Z,30.03
2018-11-06T16:42:12.342Z,32.47
2018-11-06T16:44:40.035Z,31.60
2018-11-06T16:47:07.649Z,32.17
2018-11-06T16:49:35.217Z,31.10
2018-11-06T16:52:02.831Z,33.03
2018-11-06T16:54:30.373Z,32.30
2018-11-06T16:56:58.040Z,32.53
2018-11-06T16:59:26.561Z,33.57
2018-11-06T17:01:54.302Z,35.87
2018-11-06T17:04:22.900Z,34.70
2018-11-06T17:06:51.029Z,35.20
2018-11-06T17:09:19.493Z,36.70
2018-11-06T17:11:47.142Z,37.17
2018-11-06T17:14:15.098Z,33.87
2018-11-06T17:16:42.781Z,36.30
2018-11-06T17:19:10.429Z,35.00
2018-11-06T17:21:38.020Z,32.80
2018-11-06T17:24:05.925Z,34.63
2018-11-06T17:26:33.431Z,32.67
2018-11-06T17:29:01.666Z,34.50
2018-11-06T17:31:29.244Z,35.40
2018-11-06T17:33:56.930Z,33.07
2018-11-06T17:36:24.484Z,33.80
2018-11-06T17:38:52.061Z,35.83
2018-11-06T17:41:19.588Z,33.60
2018-11-06T17:43:47.063Z,32.00
2018-11-06T17:46:14.530Z,32.40
2018-11-06T17:48:42.182Z,34.00
2018-11-06T17:51:09.673Z,34.17
2018-11-06T17:53:37.144Z,38.27
2018-11-06T17:56:04.808Z,38.50
2018-11-06T17:58:32.338Z,38.30
2018-11-06T18:00:59.897Z,41.30
2018-11-06T18:03:27.383Z,39.20
2018-11-06T18:05:54.957Z,39.67
2018-11-06T18:08:22.496Z,38.17
2018-11-06T18:10:50.115Z,38.93
2018-11-06T18:13:17.701Z,42.20
2018-11-06T18:15:45.306Z,39.73
2018-11-06T18:18:12.800Z,38.03
2018-11-06T18:20:40.362Z,35.80
2018-11-06T18:23:07.878Z,40.57
2018-11-06T18:25:35.474Z,36.20
2018-11-06T18:28:03.029Z,35.37
2018-11-06T18:30:31.036Z,34.87
2018-11-06T18:32:58.504Z,36.20
2018-11-06T18:35:26.240Z,38.27
2018-11-06T18:37:53.789Z,37.83
2018-11-06T18:40:22.303Z,40.40
2018-11-06T18:42:51.022Z,41.90
2018-11-06T18:45:19.641Z,44.70
2018-11-06T18:47:48.238Z,48.30
2018-11-06T18:50:17.578Z,47.23
2018-11-06T18:52:46.700Z,44.50
2018-11-06T18:55:14.428Z,44.07
2018-11-06T18:57:42.237Z,41.57
2018-11-06T19:00:17.639Z,40.23
2018-11-06T19:02:46.681Z,39.47
2018-11-06T19:05:15.123Z,40.67
2018-11-06T19:07:42.728Z,38.40
2018-11-06T19:10:12.000Z,38.20
2018-11-06T19:12:40.239Z,37.77
2018-11-06T19:15:11.328Z,36.80
2018-11-06T19:17:39.968Z,38.80
2018-11-06T19:20:08.332Z,36.70
2018-11-06T19:22:36.019Z,37.00
2018-11-06T19:25:03.671Z,36.37
2018-11-06T19:27:46.153Z,36.47
2018-11-06T19:30:15.534Z,37.30
2018-11-06T19:32:43.149Z,37.70
2018-11-06T19:36:14.952Z,34.97
2018-11-06T19:38:42.549Z,38.40
2018-11-06T19:41:10.197Z,39.67
2018-11-06T19:43:37.747Z,39.23
2018-11-06T19:46:05.514Z,36.80
2018-11-06T19:48:33.466Z,36.40
2018-11-06T19:51:01.081Z,37.83
2018-11-06T19:53:28.807Z,36.50
2018-11-06T19:55:56.294Z,37.30
2018-11-06T19:58:23.752Z,36.47
2018-11-06T20:00:51.365Z,38.77
2018-11-06T20:03:18.919Z,35.60
2018-11-06T20:05:46.797Z,37.83
2018-11-06T20:08:14.440Z,37.80
2018-11-06T20:10:41.932Z,37.03
2018-11-06T20:13:09.492Z,35.90
2018-11-06T20:15:37.123Z,36.90
2018-11-06T20:18:04.743Z,34.83
2018-11-06T20:20:32.325Z,36.80
2018-11-06T20:22:59.856Z,35.70
2018-11-06T20:25:27.490Z,35.27
2018-11-06T20:27:56.274Z,34.10
2018-11-06T20:30:24.963Z,33.20
2018-11-06T20:32:52.619Z,33.97
2018-11-06T20:35:20.254Z,33.40
2018-11-06T20:37:47.767Z,35.97
2018-11-06T20:40:17.888Z,35.20
2018-11-06T20:42:45.902Z,34.87
2018-11-06T20:45:14.711Z,34.27
2018-11-06T20:47:42.678Z,35.53
2018-11-06T20:50:12.436Z,33.67
2018-11-06T20:52:40.117Z,32.27
2018-11-06T20:55:09.433Z,34.90
2018-11-06T20:57:36.933Z,30.57
2018-11-06T21:00:05.404Z,33.60
2018-11-06T21:02:33.014Z,32.37
2018-11-06T21:05:00.683Z,32.90
2018-11-06T21:07:28.545Z,31.47
2018-11-06T21:09:56.554Z,31.80
2018-11-06T21:12:24.173Z,29.97
2018-11-06T21:14:51.693Z,32.80
2018-11-06T21:17:19.514Z,33.27
2018-11-06T21:19:47.383Z,33.43
2018-11-06T21:22:15.000Z,32.80
2018-11-06T21:24:42.656Z,32.97
2018-11-06T21:27:10.280Z,32.03
2018-11-06T21:29:37.934Z,36.37
2018-11-06T21:32:05.906Z,35.83
2018-11-06T21:34:33.635Z,33.10
2018-11-06T21:37:01.187Z,32.63
2018-11-06T21:39:28.656Z,31.90
2018-11-06T21:41:56.324Z,34.77
2018-11-06T21:44:23.908Z,32.90
2018-11-06T21:46:51.513Z,35.80
2018-11-06T21:49:20.299Z,32.37
2018-11-06T21:51:47.936Z,34.93
2018-11-06T21:54:15.526Z,30.37
2018-11-06T21:56:43.035Z,32.83
2018-11-06T21:59:10.828Z,33.77
2018-11-06T22:01:38.393Z,32.20
2018-11-06T22:04:06.307Z,29.63
2018-11-06T22:06:33.904Z,32.97
2018-11-06T22:09:01.458Z,33.30
2018-11-06T22:11:29.127Z,35.60
2018-11-06T22:13:56.697Z,34.87
2018-11-06T22:16:24.377Z,35.70
2018-11-06T22:18:52.002Z,33.43
2018-11-06T22:21:19.620Z,35.60
2018-11-06T22:23:47.226Z,36.27
2018-11-06T22:26:14.676Z,33.13
2018-11-06T22:28:42.234Z,36.40
2018-11-06T22:31:09.811Z,36.87
2018-11-06T22:33:38.185Z,35.80
2018-11-06T22:36:05.706Z,36.27
2018-11-06T22:38:33.219Z,34.27
2018-11-06T22:41:00.890Z,34.50
2018-11-06T22:43:28.510Z,33.40
2018-11-06T22:45:56.063Z,32.70
2018-11-06T22:48:23.620Z,30.60
2018-11-06T22:50:51.192Z,29.83
2018-11-06T22:53:18.727Z,29.23
2018-11-06T22:55:46.249Z,29.10
2018-11-06T22:58:13.862Z,29.80
2018-11-06T23:00:47.127Z,29.43
2018-11-06T23:03:15.209Z,29.43
2018-11-06T23:05:42.794Z,30.67
2018-11-06T23:08:15.869Z,31.53
2018-11-06T23:10:43.495Z,30.23
2018-11-06T23:13:11.009Z,31.00
2018-11-06T23:15:38.596Z,32.00
2018-11-06T23:18:06.201Z,32.50
2018-11-06T23:20:33.806Z,30.73
2018-11-06T23:23:01.335Z,30.73
2018-11-06T23:25:28.885Z,30.83
2018-11-06T23:27:56.443Z,29.63
2018-11-06T23:30:23.979Z,30.90
2018-11-06T23:32:52.470Z,30.70
2018-11-06T23:35:21.059Z,30.97
2018-11-06T23:37:48.552Z,30.23
2018-11-06T23:40:16.069Z,29.77
2018-11-06T23:42:43.583Z,31.33
2018-11-06T23:45:11.148Z,31.50
2018-11-06T23:47:38.700Z,32.73
2018-11-06T23:50:07.555Z,33.87
2018-11-06T23:52:35.040Z,31.40
2018-11-06T23:55:02.590Z,32.63
2018-11-06T23:57:30.337Z,33.03
2018-11-06T23:59:58.521Z,32.77
